createdAt,value
2018-12-19T00:01:14.382Z,42.87
2018-12-19T00:03:42.914Z,43.23
2018-12-19T00:06:11.261Z,39.70
2018-12-19T00:08:39.822Z,47.50
2018-12-19T00:11:08.158Z,43.77
2018-12-19T00:13:36.464Z,44.47
2018-12-19T00:16:05.004Z,50.33
2018-12-19T00:18:33.312Z,43.73
2018-12-19T00:21:01.649Z,37.77
2018-12-19T00:23:30.598Z,46.50
2018-12-19T00:25:58.917Z,48.73
2018-12-19T00:28:27.356Z,43.87
2018-12-19T00:30:55.895Z,46.23
2018-12-19T00:33:24.266Z,41.87
2018-12-19T00:35:52.760Z,51.43
2018-12-19T00:38:21.179Z,51.10
2018-12-19T00:40:49.557Z,51.07
2018-12-19T00:43:17.907Z,40.43
2018-12-19T00:45:46.546Z,49.03
2018-12-19T00:48:14.896Z,52.30
2018-12-19T00:50:43.224Z,48.20
2018-12-19T00:53:12.049Z,45.27
2018-12-19T00:55:40.412Z,44.73
2018-12-19T00:58:08.792Z,47.03
2018-12-19T01:00:37.488Z,49.07
2018-12-19T01:03:05.781Z,48.33
2018-12-19T01:05:34.140Z,48.87
2018-12-19T01:08:02.544Z,46.97
2018-12-19T01:10:30.972Z,47.63
2018-12-19T01:12:59.341Z,50.97
2018-12-19T01:15:28.212Z,42.83
2018-12-19T01:17:56.541Z,44.13
2018-12-19T01:20:25.029Z,40.77
2018-12-19T01:22:53.672Z,44.23
2018-12-19T01:25:22.185Z,40.10
2018-12-19T01:27:50.615Z,43.43
2018-12-19T01:30:19.355Z,40.73
2018-12-19T01:32:47.731Z,42.80
2018-12-19T01:35:16.102Z,43.30
2018-12-19T01:37:44.694Z,36.60
2018-12-19T01:40:13.031Z,42.63
2018-12-19T01:42:41.406Z,39.00
2018-12-19T01:45:10.137Z,38.50
2018-12-19T01:47:38.477Z,32.53
2018-12-19T01:50:07.002Z,34.93
2018-12-19T01:52:35.503Z,36.67
2018-12-19T01:55:03.905Z,35.23
2018-12-19T01:57:32.295Z,36.63
2018-12-19T02:00:00.885Z,39.00
2018-12-19T02:02:29.206Z,39.10
2018-12-19T02:04:57.770Z,38.67
2018-12-19T02:07:26.452Z,36.23
2018-12-19T02:09:54.804Z,36.93
2018-12-19T02:12:23.153Z,36.10
2018-12-19T02:14:51.548Z,36.37
2018-12-19T02:17:19.972Z,37.47
2018-12-19T02:19:48.358Z,34.00
2018-12-19T02:22:16.895Z,33.20
2018-12-19T02:24:45.234Z,39.33
2018-12-19T02:27:13.576Z,36.30
2018-12-19T02:29:41.977Z,35.23
2018-12-19T02:32:10.303Z,36.43
2018-12-19T02:34:38.766Z,31.97
2018-12-19T02:37:07.172Z,32.00
2018-12-19T02:39:36.291Z,37.23
2018-12-19T02:42:03.839Z,36.83
2018-12-19T02:44:32.344Z,35.43
2018-12-19T02:47:00.767Z,34.00
2018-12-19T02:49:29.182Z,31.73
2018-12-19T02:51:57.861Z,31.47
2018-12-19T02:54:26.212Z,30.00
2018-12-19T02:56:54.524Z,34.93
2018-12-19T02:59:23.053Z,40.37
2018-12-19T03:01:51.431Z,35.43
2018-12-19T03:04:19.766Z,35.97
2018-12-19T03:06:48.193Z,31.20
2018-12-19T03:09:16.528Z,39.10
2018-12-19T03:11:44.890Z,32.47
2018-12-19T03:14:13.300Z,36.60
2018-12-19T03:16:41.697Z,33.17
2018-12-19T03:19:10.006Z,37.47
2018-12-19T03:21:38.701Z,37.40
2018-12-19T03:24:07.064Z,32.43
2018-12-19T03:26:35.422Z,36.80
2018-12-19T03:29:04.129Z,32.70
2018-12-19T03:31:32.481Z,39.73
2018-12-19T03:34:00.841Z,31.40
2018-12-19T03:36:29.584Z,38.87
2018-12-19T03:38:57.978Z,38.87
2018-12-19T03:41:26.294Z,32.73
2018-12-19T03:43:54.744Z,34.80
2018-12-19T03:46:23.119Z,32.37
2018-12-19T03:48:56.631Z,33.27
2018-12-19T03:51:25.161Z,28.33
2018-12-19T03:53:53.513Z,33.40
2018-12-19T03:56:22.304Z,29.87
2018-12-19T03:58:50.810Z,32.90
2018-12-19T04:01:19.100Z,32.90
2018-12-19T04:03:47.742Z,30.47
2018-12-19T04:06:16.574Z,34.00
2018-12-19T04:08:44.890Z,30.27
2018-12-19T04:11:13.494Z,30.57
2018-12-19T04:13:41.856Z,24.93
2018-12-19T04:16:10.206Z,30.40
2018-12-19T04:18:39.380Z,30.83
2018-12-19T04:21:07.739Z,30.83
2018-12-19T04:23:36.112Z,36.63
2018-12-19T04:26:04.778Z,26.80
2018-12-19T04:28:33.182Z,28.80
2018-12-19T04:31:01.502Z,35.57
2018-12-19T04:33:30.246Z,33.33
2018-12-19T04:35:58.571Z,33.83
2018-12-19T04:38:26.940Z,30.97
2018-12-19T04:40:55.594Z,33.00
2018-12-19T04:43:23.934Z,37.43
2018-12-19T04:45:52.418Z,34.17
2018-12-19T04:48:20.964Z,31.03
2018-12-19T04:50:49.260Z,33.63
2018-12-19T04:53:17.588Z,37.23
2018-12-19T04:55:46.415Z,30.47
2018-12-19T04:58:14.813Z,34.60
2018-12-19T05:00:43.142Z,36.23
2018-12-19T05:03:11.882Z,38.17
2018-12-19T05:05:40.208Z,37.63
2018-12-19T05:08:08.631Z,37.03
2018-12-19T05:10:37.459Z,32.47
2018-12-19T05:13:05.839Z,31.83
2018-12-19T05:15:34.627Z,32.47
2018-12-19T05:18:03.357Z,33.43
2018-12-19T05:20:31.684Z,36.27
2018-12-19T05:23:00.062Z,40.07
2018-12-19T05:25:28.468Z,36.60
2018-12-19T05:27:56.821Z,31.23
2018-12-19T05:30:25.393Z,37.43
2018-12-19T05:32:53.798Z,40.53
2018-12-19T05:35:22.170Z,30.63
2018-12-19T05:37:50.548Z,31.60
2018-12-19T05:40:19.250Z,30.80
2018-12-19T05:42:47.598Z,36.47
2018-12-19T05:45:15.951Z,32.43
2018-12-19T05:47:44.390Z,31.43
2018-12-19T05:50:12.972Z,37.07
2018-12-19T05:52:41.372Z,34.67
2018-12-19T05:55:09.858Z,32.50
2018-12-19T05:57:38.215Z,37.73
2018-12-19T06:00:06.967Z,38.70
2018-12-19T06:02:35.539Z,34.50
2018-12-19T06:05:04.383Z,38.40
2018-12-19T06:07:32.704Z,41.23
2018-12-19T06:10:01.213Z,37.00
2018-12-19T06:12:29.536Z,38.40
2018-12-19T06:14:57.890Z,38.23
2018-12-19T06:17:26.568Z,36.20
2018-12-19T06:19:54.905Z,32.87
2018-12-19T06:22:24.079Z,38.97
2018-12-19T06:24:52.957Z,39.23
2018-12-19T06:27:21.259Z,33.23
2018-12-19T06:29:49.576Z,34.30
2018-12-19T06:32:18.082Z,33.83
2018-12-19T06:34:46.420Z,42.27
2018-12-19T06:37:14.746Z,40.03
2018-12-19T06:39:43.273Z,33.10
2018-12-19T06:42:11.600Z,34.20
2018-12-19T06:44:40.112Z,40.67
2018-12-19T06:47:08.799Z,46.00
2018-12-19T06:49:37.178Z,35.97
2018-12-19T06:52:05.496Z,42.43
2018-12-19T06:54:34.091Z,41.40
2018-12-19T06:57:02.422Z,38.80
2018-12-19T06:59:30.735Z,35.63
2018-12-19T07:01:59.674Z,36.77
2018-12-19T07:04:28.018Z,34.70
2018-12-19T07:06:56.382Z,41.20
2018-12-19T07:09:24.816Z,38.67
2018-12-19T07:11:53.105Z,38.40
2018-12-19T07:14:21.468Z,37.27
2018-12-19T07:16:50.116Z,35.73
2018-12-19T07:19:18.503Z,33.87
2018-12-19T07:21:47.003Z,36.93
2018-12-19T07:24:15.450Z,37.03
2018-12-19T07:26:43.781Z,36.37
2018-12-19T07:29:12.114Z,40.17
2018-12-19T07:31:40.824Z,38.43
2018-12-19T07:34:09.188Z,37.20
2018-12-19T07:36:37.543Z,40.47
2018-12-19T07:39:07.951Z,40.07
2018-12-19T07:41:36.354Z,44.23
2018-12-19T07:44:04.724Z,42.10
2018-12-19T07:46:33.547Z,35.33
2018-12-19T07:49:01.839Z,42.23
2018-12-19T07:51:30.216Z,38.80
2018-12-19T07:53:58.922Z,37.03
2018-12-19T07:56:27.366Z,42.43
2018-12-19T07:58:55.689Z,41.97
2018-12-19T08:01:24.396Z,37.83
2018-12-19T08:03:52.814Z,40.97
2018-12-19T08:06:21.110Z,33.50
2018-12-19T08:08:49.557Z,38.20
2018-12-19T08:11:18.186Z,45.23
2018-12-19T08:13:46.492Z,34.20
2018-12-19T08:16:15.174Z,31.50
2018-12-19T08:18:43.507Z,33.00
2018-12-19T08:21:11.824Z,31.47
2018-12-19T08:23:40.300Z,31.37
2018-12-19T08:26:08.676Z,34.37
2018-12-19T08:28:37.005Z,36.17
2018-12-19T08:31:05.482Z,33.00
2018-12-19T08:33:34.272Z,32.53
2018-12-19T08:36:02.620Z,31.47
2018-12-19T08:38:31.476Z,32.20
2018-12-19T08:40:59.787Z,33.67
2018-12-19T08:43:28.105Z,30.87
2018-12-19T08:45:56.936Z,27.77
2018-12-19T08:48:25.274Z,27.70
2018-12-19T08:50:53.618Z,27.20
2018-12-19T08:53:22.262Z,27.57
2018-12-19T08:55:50.886Z,24.63
2018-12-19T08:58:19.221Z,24.93
2018-12-19T09:00:47.667Z,24.80
2018-12-19T09:03:15.962Z,26.70
2018-12-19T09:05:44.398Z,23.10
2018-12-19T09:08:12.836Z,25.70
2018-12-19T09:10:41.157Z,23.90
2018-12-19T09:13:09.501Z,23.13
2018-12-19T09:15:43.439Z,23.27
2018-12-19T09:18:11.759Z,25.63
2018-12-19T09:20:40.147Z,25.63
2018-12-19T09:23:08.617Z,22.40
2018-12-19T09:25:36.922Z,25.13
2018-12-19T09:28:05.384Z,28.70
2018-12-19T09:30:33.781Z,26.40
2018-12-19T09:33:02.126Z,23.53
2018-12-19T09:35:30.482Z,25.83
2018-12-19T09:37:58.911Z,31.43
2018-12-19T09:40:27.261Z,33.97
2018-12-19T09:42:55.701Z,31.10
2018-12-19T09:45:24.153Z,26.83
2018-12-19T09:47:52.450Z,28.97
2018-12-19T09:50:20.787Z,27.10
2018-12-19T09:52:49.715Z,31.53
2018-12-19T09:55:18.052Z,24.07
2018-12-19T09:57:46.428Z,26.80
2018-12-19T10:00:20.189Z,26.53
2018-12-19T10:02:49.413Z,25.23
2018-12-19T10:05:16.874Z,21.93
2018-12-19T10:07:45.289Z,21.07
2018-12-19T10:10:13.666Z,26.47
2018-12-19T10:12:42.034Z,19.43
2018-12-19T10:15:10.809Z,23.13
2018-12-19T10:17:41.067Z,21.83
2018-12-19T10:20:08.665Z,23.83
2018-12-19T10:22:37.383Z,22.57
2018-12-19T10:25:11.461Z,23.53
2018-12-19T10:27:40.221Z,27.83
2018-12-19T10:30:10.746Z,26.20
2018-12-19T10:32:39.081Z,25.43
2018-12-19T10:35:08.905Z,27.27
2018-12-19T10:37:37.309Z,32.67
2018-12-19T10:40:08.857Z,25.73
2018-12-19T10:42:37.413Z,22.80
2018-12-19T10:45:08.072Z,20.63
2018-12-19T10:47:36.479Z,28.33
2018-12-19T10:50:06.672Z,23.43
2018-12-19T10:52:35.010Z,27.57
2018-12-19T10:55:07.042Z,23.10
2018-12-19T10:57:36.037Z,36.87
2018-12-19T11:00:08.478Z,33.37
2018-12-19T11:02:36.805Z,24.37
2018-12-19T11:05:05.540Z,25.13
2018-12-19T11:07:33.921Z,24.57
2018-12-19T11:10:02.246Z,27.20
2018-12-19T11:12:30.720Z,28.17
2018-12-19T11:14:59.034Z,20.77
2018-12-19T11:17:27.323Z,22.47
2018-12-19T11:19:56.110Z,21.10
2018-12-19T11:22:24.436Z,24.43
2018-12-19T11:24:52.741Z,22.77
2018-12-19T11:27:21.242Z,25.03
2018-12-19T11:29:49.552Z,25.47
2018-12-19T11:32:17.878Z,24.80
2018-12-19T11:34:46.376Z,26.03
2018-12-19T11:37:14.712Z,21.77
2018-12-19T11:39:43.039Z,20.73
2018-12-19T11:42:11.532Z,23.47
2018-12-19T11:44:39.855Z,31.03
2018-12-19T11:47:08.164Z,23.00
2018-12-19T11:49:36.814Z,22.70
2018-12-19T11:52:05.126Z,29.23
2018-12-19T11:54:33.678Z,19.97
2018-12-19T11:57:02.112Z,26.00
2018-12-19T11:59:30.425Z,34.33
2018-12-19T12:01:58.723Z,22.57
2018-12-19T12:04:27.529Z,19.10
2018-12-19T12:06:55.902Z,19.93
2018-12-19T12:09:24.271Z,23.57
2018-12-19T12:11:52.825Z,24.37
2018-12-19T12:14:21.158Z,18.83
2018-12-19T12:16:49.519Z,20.33
2018-12-19T12:19:18.387Z,24.07
2018-12-19T12:21:46.785Z,28.10
2018-12-19T12:24:15.203Z,26.47
2018-12-19T12:26:43.626Z,23.63
2018-12-19T12:29:11.917Z,25.57
2018-12-19T12:31:40.323Z,22.00
2018-12-19T12:34:08.838Z,24.07
2018-12-19T12:36:37.159Z,32.80
2018-12-19T12:39:07.743Z,25.73
2018-12-19T12:41:36.238Z,28.03
2018-12-19T12:44:04.646Z,34.53
2018-12-19T12:46:33.039Z,28.40
2018-12-19T12:49:01.702Z,26.53
2018-12-19T12:51:30.021Z,25.17
2018-12-19T12:53:58.462Z,28.47
2018-12-19T12:56:27.001Z,27.27
2018-12-19T12:58:55.324Z,32.17
2018-12-19T13:01:23.720Z,28.60
2018-12-19T13:03:52.582Z,29.40
2018-12-19T13:06:20.915Z,31.07
2018-12-19T13:08:49.330Z,31.77
2018-12-19T13:11:17.704Z,26.87
2018-12-19T13:13:45.991Z,32.60
2018-12-19T13:16:14.337Z,34.20
2018-12-19T13:18:42.750Z,34.43
2018-12-19T13:21:11.229Z,30.10
2018-12-19T13:23:39.621Z,34.50
2018-12-19T13:26:08.156Z,34.57
2018-12-19T13:28:36.609Z,37.83
2018-12-19T13:31:04.994Z,36.57
2018-12-19T13:33:33.653Z,30.23
2018-12-19T13:36:01.996Z,36.57
2018-12-19T13:38:30.455Z,35.07
2018-12-19T13:40:58.876Z,29.17
2018-12-19T13:43:27.301Z,34.67
2018-12-19T13:45:55.584Z,36.80
2018-12-19T13:48:24.068Z,36.47
2018-12-19T13:50:52.461Z,35.70
2018-12-19T13:53:20.921Z,33.13
2018-12-19T13:55:49.749Z,39.37
2018-12-19T13:58:18.127Z,31.70
2018-12-19T14:00:47.030Z,38.23
2018-12-19T14:03:15.512Z,36.90
2018-12-19T14:05:43.822Z,32.73
2018-12-19T14:08:12.130Z,29.63
2018-12-19T14:10:40.930Z,40.53
2018-12-19T14:13:09.242Z,40.13
2018-12-19T14:15:37.558Z,37.97
2018-12-19T14:18:06.062Z,39.80
2018-12-19T14:20:34.395Z,36.63
2018-12-19T14:23:02.739Z,32.40
2018-12-19T14:25:31.373Z,40.43
2018-12-19T14:27:59.726Z,33.97
2018-12-19T14:30:28.102Z,32.53
2018-12-19T14:32:56.810Z,39.63
2018-12-19T14:35:25.145Z,34.03
2018-12-19T14:37:53.700Z,38.97
2018-12-19T14:40:22.224Z,37.80
2018-12-19T14:42:50.508Z,33.27
2018-12-19T14:45:18.889Z,35.23
2018-12-19T14:47:47.823Z,36.03
2018-12-19T14:50:16.137Z,33.00
2018-12-19T14:52:44.459Z,29.93
2018-12-19T14:55:12.881Z,28.63
2018-12-19T14:57:41.196Z,33.50
2018-12-19T15:00:10.440Z,38.53
2018-12-19T15:02:38.870Z,33.73
2018-12-19T15:05:07.272Z,34.80
2018-12-19T15:07:35.643Z,32.43
2018-12-19T15:10:04.579Z,37.90
2018-12-19T15:12:32.919Z,36.07
2018-12-19T15:15:01.343Z,27.93
2018-12-19T15:17:29.812Z,41.00
2018-12-19T15:19:58.148Z,37.23
2018-12-19T15:22:26.610Z,35.00
2018-12-19T15:24:55.319Z,34.17
2018-12-19T15:27:24.002Z,38.93
2018-12-19T15:29:52.323Z,33.67
2018-12-19T15:32:20.924Z,36.30
2018-12-19T15:34:49.270Z,35.13
2018-12-19T15:37:17.626Z,36.37
2018-12-19T15:39:46.151Z,36.03
2018-12-19T15:42:14.504Z,42.80
2018-12-19T15:44:42.793Z,43.17
2018-12-19T15:47:11.225Z,35.40
2018-12-19T15:49:39.699Z,41.00
2018-12-19T15:52:08.104Z,43.50
2018-12-19T15:54:36.763Z,40.80
2018-12-19T15:57:05.163Z,48.97
2018-12-19T15:59:33.490Z,47.10
2018-12-19T16:02:01.977Z,41.67
2018-12-19T16:04:30.602Z,38.87
2018-12-19T16:06:58.923Z,39.80
2018-12-19T16:09:27.528Z,50.53
2018-12-19T16:11:55.855Z,42.67
2018-12-19T16:14:24.372Z,46.53
2018-12-19T16:16:52.967Z,38.87
2018-12-19T16:19:21.316Z,39.30
2018-12-19T16:21:49.690Z,49.07
2018-12-19T16:24:18.548Z,45.83
2018-12-19T16:26:46.927Z,40.80
2018-12-19T16:29:15.250Z,41.83
2018-12-19T16:31:43.986Z,40.87
2018-12-19T16:34:12.310Z,38.83
2018-12-19T16:36:40.684Z,52.30
2018-12-19T16:39:10.041Z,41.33
2018-12-19T16:41:38.369Z,42.90
2018-12-19T16:44:06.736Z,44.33
2018-12-19T16:46:35.173Z,40.87
2018-12-19T16:49:03.504Z,48.37
2018-12-19T16:51:31.827Z,46.17
2018-12-19T16:54:00.279Z,47.10
2018-12-19T16:56:28.687Z,53.57
2018-12-19T16:58:57.066Z,49.90
2018-12-19T17:01:26.052Z,55.07
2018-12-19T17:03:54.342Z,49.83
2018-12-19T17:06:22.704Z,49.60
2018-12-19T17:08:51.379Z,55.00
2018-12-19T17:11:19.733Z,55.23
2018-12-19T17:13:48.075Z,50.17
2018-12-19T17:16:16.822Z,55.63
2018-12-19T17:18:45.319Z,63.20
2018-12-19T17:21:13.902Z,61.17
2018-12-19T17:23:43.240Z,65.97
2018-12-19T17:26:11.769Z,67.03
2018-12-19T17:28:40.459Z,51.23
2018-12-19T17:31:09.516Z,61.87
2018-12-19T17:33:38.527Z,55.90
2018-12-19T17:36:07.531Z,56.57
2018-12-19T17:38:36.756Z,61.97
2018-12-19T17:41:05.828Z,54.77
2018-12-19T17:43:34.924Z,51.10
2018-12-19T17:46:04.148Z,56.73
2018-12-19T17:48:33.174Z,57.00
2018-12-19T17:51:02.135Z,51.20
2018-12-19T17:53:30.833Z,55.73
2018-12-19T17:55:59.453Z,45.97
2018-12-19T17:58:28.231Z,48.90
2018-12-19T18:00:57.563Z,64.87
2018-12-19T18:03:26.246Z,50.77
2018-12-19T18:05:54.828Z,50.07
2018-12-19T18:08:23.472Z,48.27
2018-12-19T18:10:52.302Z,56.13
2018-12-19T18:13:20.928Z,59.40
2018-12-19T18:15:49.983Z,52.30
2018-12-19T18:18:18.809Z,61.17
2018-12-19T18:20:47.563Z,49.77
2018-12-19T18:23:17.424Z,58.20
2018-12-19T18:25:46.087Z,56.73
2018-12-19T18:28:14.648Z,51.80
2018-12-19T18:30:43.428Z,51.27
2018-12-19T18:33:12.212Z,40.37
2018-12-19T18:35:41.134Z,38.50
2018-12-19T18:38:09.964Z,47.37
2018-12-19T18:40:38.630Z,49.77
2018-12-19T18:43:12.931Z,46.13
2018-12-19T18:45:36.257Z,46.37
2018-12-19T18:48:04.877Z,53.23
2018-12-19T18:50:33.680Z,48.13
2018-12-19T18:53:02.696Z,48.73
2018-12-19T18:55:31.662Z,50.90
2018-12-19T18:58:00.459Z,49.47
2018-12-19T19:00:36.976Z,49.90
2018-12-19T19:03:05.736Z,54.53
2018-12-19T19:05:34.499Z,53.70
2018-12-19T19:08:03.426Z,54.60
2018-12-19T19:10:32.176Z,47.30
2018-12-19T19:13:00.904Z,48.13
2018-12-19T19:15:29.739Z,56.57
2018-12-19T19:17:58.569Z,50.97
2018-12-19T19:20:27.295Z,51.97
2018-12-19T19:22:56.184Z,55.57
2018-12-19T19:25:24.991Z,64.47
2018-12-19T19:27:53.723Z,60.97
2018-12-19T19:30:22.978Z,57.90
2018-12-19T19:32:52.428Z,61.53
2018-12-19T19:35:21.364Z,59.20
2018-12-19T19:37:50.565Z,66.00
2018-12-19T19:40:19.414Z,62.53
2018-12-19T19:42:48.180Z,59.67
2018-12-19T19:45:17.247Z,62.93
2018-12-19T19:47:46.084Z,55.53
2018-12-19T19:50:14.951Z,70.50
2018-12-19T19:52:43.935Z,77.30
2018-12-19T19:55:12.644Z,69.20
2018-12-19T19:57:41.636Z,83.13
2018-12-19T20:00:11.814Z,88.50
2018-12-19T20:02:40.543Z,78.80
2018-12-19T20:05:09.534Z,77.47
2018-12-19T20:07:38.923Z,88.13
2018-12-19T20:10:07.919Z,90.07
2018-12-19T20:12:36.691Z,76.27
2018-12-19T20:15:06.316Z,71.57
2018-12-19T20:17:35.366Z,77.13
2018-12-19T20:20:04.199Z,85.40
2018-12-19T20:22:33.343Z,77.60
2018-12-19T20:25:02.147Z,86.20
2018-12-19T20:27:31.092Z,88.40
2018-12-19T20:30:00.314Z,93.50
2018-12-19T20:32:29.067Z,87.07
2018-12-19T20:34:58.077Z,96.43
2018-12-19T20:37:27.441Z,85.70
2018-12-19T20:39:56.192Z,90.03
2018-12-19T20:42:24.910Z,90.27
2018-12-19T20:44:53.822Z,99.80
2018-12-19T20:47:22.592Z,89.53
2018-12-19T20:49:51.468Z,102.40
2018-12-19T20:52:20.471Z,108.80
2018-12-19T20:54:49.181Z,98.47
2018-12-19T20:57:17.881Z,98.37
2018-12-19T20:59:46.984Z,100.73
2018-12-19T21:02:15.739Z,90.63
2018-12-19T21:04:44.467Z,95.10
2018-12-19T21:07:13.395Z,101.30
2018-12-19T21:09:42.641Z,101.37
2018-12-19T21:12:11.433Z,99.20
2018-12-19T21:14:40.295Z,110.00
2018-12-19T21:17:14.397Z,93.20
2018-12-19T21:19:43.681Z,91.47
2018-12-19T21:22:12.488Z,95.57
2018-12-19T21:24:41.645Z,124.17
2018-12-19T21:27:10.836Z,129.60
2018-12-19T21:29:39.558Z,123.77
2018-12-19T21:32:08.299Z,102.70
2018-12-19T21:34:37.168Z,117.30
2018-12-19T21:37:06.010Z,121.43
2018-12-19T21:39:34.752Z,121.27
2018-12-19T21:42:03.995Z,115.10
2018-12-19T21:44:32.748Z,108.27
2018-12-19T21:47:01.206Z,95.23
2018-12-19T21:49:30.062Z,125.30
2018-12-19T21:51:58.391Z,98.40
2018-12-19T21:54:26.722Z,109.23
2018-12-19T21:56:55.214Z,110.20
2018-12-19T21:59:23.580Z,99.90
2018-12-19T22:01:51.960Z,105.13
2018-12-19T22:04:20.493Z,99.37
2018-12-19T22:06:48.850Z,112.17
2018-12-19T22:09:17.243Z,113.27
2018-12-19T22:11:45.702Z,107.93
2018-12-19T22:14:14.090Z,106.40
2018-12-19T22:16:47.949Z,100.20
2018-12-19T22:19:16.265Z,110.40
2018-12-19T22:21:44.793Z,125.43
2018-12-19T22:24:13.477Z,127.07
2018-12-19T22:26:41.870Z,101.10
2018-12-19T22:29:10.164Z,151.13
2018-12-19T22:31:38.773Z,160.37
2018-12-19T22:34:07.081Z,158.70
2018-12-19T22:36:35.439Z,154.50
2018-12-19T22:39:05.205Z,175.73
2018-12-19T22:41:33.697Z,221.27
2018-12-19T22:44:07.915Z,203.80
2018-12-19T22:46:30.617Z,251.70
2018-12-19T22:48:59.069Z,299.27
2018-12-19T22:51:27.399Z,313.27
2018-12-19T22:53:56.022Z,259.80
2018-12-19T22:56:24.411Z,272.67
2018-12-19T22:58:52.706Z,194.93
2018-12-19T23:01:26.675Z,243.70
2018-12-19T23:04:00.463Z,191.53
2018-12-19T23:06:28.858Z,182.13
2018-12-19T23:08:57.482Z,178.43
2018-12-19T23:11:25.858Z,209.13
2018-12-19T23:13:54.251Z,204.47
2018-12-19T23:16:22.569Z,189.53
2018-12-19T23:18:50.905Z,195.97
2018-12-19T23:21:19.616Z,178.37
2018-12-19T23:23:48.112Z,236.00
2018-12-19T23:26:16.432Z,252.80
2018-12-19T23:28:45.088Z,223.40
2018-12-19T23:31:13.368Z,205.17
2018-12-19T23:33:41.699Z,208.33
2018-12-19T23:36:10.482Z,191.50
2018-12-19T23:38:38.769Z,187.33
2018-12-19T23:41:07.106Z,177.23
2018-12-19T23:43:35.998Z,168.37
2018-12-19T23:46:04.350Z,138.00
2018-12-19T23:48:32.697Z,156.90
2018-12-19T23:51:01.300Z,177.60
2018-12-19T23:53:29.778Z,147.80
2018-12-19T23:55:58.105Z,155.77
2018-12-19T23:58:26.950Z,152.13
